createdAt,value
2019-03-01T00:00:15.671Z,15.23
2019-03-01T00:03:10.239Z,13.87
2019-03-01T00:06:20.271Z,15.57
2019-03-01T00:09:31.805Z,18.77
2019-03-01T00:12:58.498Z,22.47
2019-03-01T00:16:15.633Z,33.47
2019-03-01T00:20:06.487Z,57.27
2019-03-01T00:23:25.546Z,22.57
2019-03-01T00:26:36.016Z,16.83
2019-03-01T00:30:02.289Z,35.73
2019-03-01T00:33:13.084Z,21.67
2019-03-01T00:36:56.180Z,20.60
2019-03-01T00:40:16.085Z,108.80
2019-03-01T00:43:37.761Z,69.47
2019-03-01T00:46:28.162Z,41.53
2019-03-01T00:49:18.353Z,19.33
2019-03-01T00:52:09.336Z,32.47
2019-03-01T00:54:59.511Z,92.27
2019-03-01T00:57:50.032Z,73.27
2019-03-01T01:00:43.465Z,23.90
2019-03-01T01:03:33.444Z,17.03
2019-03-01T01:06:23.711Z,12.87
2019-03-01T01:09:13.964Z,14.27
2019-03-01T01:12:04.404Z,29.00
2019-03-01T01:14:54.685Z,45.50
2019-03-01T01:17:44.938Z,30.83
2019-03-01T01:20:35.205Z,71.10
2019-03-01T01:23:25.456Z,354.27
2019-03-01T01:26:15.450Z,117.70
2019-03-01T01:29:05.703Z,37.43
2019-03-01T01:31:55.669Z,60.60
2019-03-01T01:34:47.234Z,325.80
2019-03-01T01:37:37.552Z,251.10
2019-03-01T01:40:28.032Z,170.23
2019-03-01T01:43:19.898Z,92.33
2019-03-01T01:46:10.270Z,184.07
2019-03-01T01:49:00.461Z,362.83
2019-03-01T01:51:50.924Z,77.07
2019-03-01T01:54:40.853Z,43.30
2019-03-01T01:57:33.461Z,40.50
2019-03-01T02:00:23.486Z,86.27
2019-03-01T02:03:16.335Z,31.77
2019-03-01T02:06:06.570Z,291.40
2019-03-01T02:08:56.909Z,180.63
2019-03-01T02:11:48.299Z,57.70
2019-03-01T02:14:38.520Z,29.50
2019-03-01T02:17:28.717Z,23.10
2019-03-01T02:20:19.096Z,18.10
2019-03-01T02:23:09.466Z,19.73
2019-03-01T02:25:59.771Z,50.03
2019-03-01T02:28:49.923Z,27.60
2019-03-01T02:31:42.674Z,42.50
2019-03-01T02:34:32.671Z,148.67
2019-03-01T02:37:22.841Z,184.93
2019-03-01T02:40:13.582Z,353.57
2019-03-01T02:43:05.086Z,426.80
2019-03-01T02:45:55.935Z,487.60
2019-03-01T02:48:46.061Z,166.37
2019-03-01T02:51:36.348Z,298.50
2019-03-01T02:54:26.483Z,127.17
2019-03-01T02:57:16.911Z,39.03
2019-03-01T03:00:09.662Z,136.83
2019-03-01T03:03:00.928Z,322.43
2019-03-01T03:06:02.753Z,162.30
2019-03-01T03:08:52.822Z,24.80
2019-03-01T03:11:43.181Z,75.97
2019-03-01T03:14:34.403Z,44.37
2019-03-01T03:17:24.646Z,68.03
2019-03-01T03:20:14.828Z,92.80
2019-03-01T03:23:05.944Z,11.90
2019-03-01T03:25:56.366Z,12.23
2019-03-01T03:28:46.729Z,19.00
2019-03-01T03:31:37.003Z,58.97
2019-03-01T03:34:27.188Z,30.77
2019-03-01T03:37:17.248Z,80.50
2019-03-01T03:40:09.594Z,21.23
2019-03-01T03:43:00.143Z,9.70
2019-03-01T03:45:50.147Z,11.00
2019-03-01T03:48:40.518Z,16.57
2019-03-01T03:51:30.693Z,26.30
2019-03-01T03:54:20.993Z,55.77
2019-03-01T03:57:11.619Z,20.13
2019-03-01T04:00:01.669Z,11.30
2019-03-01T04:02:51.799Z,22.47
2019-03-01T04:05:44.632Z,44.00
2019-03-01T04:08:34.650Z,24.07
2019-03-01T04:11:27.347Z,67.87
2019-03-01T04:14:17.519Z,63.10
2019-03-01T04:17:07.874Z,59.90
2019-03-01T04:19:57.931Z,41.57
2019-03-01T04:22:47.831Z,66.10
2019-03-01T04:25:38.120Z,46.63
2019-03-01T04:28:28.422Z,13.67
2019-03-01T04:31:19.048Z,16.27
2019-03-01T04:34:09.232Z,16.23
2019-03-01T04:36:59.579Z,17.83
2019-03-01T04:39:49.732Z,28.03
2019-03-01T04:42:39.892Z,15.03
2019-03-01T04:45:30.101Z,22.27
2019-03-01T04:48:20.693Z,13.77
2019-03-01T04:51:13.523Z,39.60
2019-03-01T04:54:03.630Z,19.67
2019-03-01T04:56:53.541Z,26.33
2019-03-01T04:59:44.319Z,29.97
2019-03-01T05:02:34.524Z,25.50
2019-03-01T05:05:24.676Z,22.00
2019-03-01T05:08:15.126Z,22.80
2019-03-01T05:11:05.792Z,22.23
2019-03-01T05:13:56.018Z,23.00
2019-03-01T05:16:46.318Z,25.90
2019-03-01T05:19:36.576Z,24.83
2019-03-01T05:22:27.471Z,15.00
2019-03-01T05:25:19.742Z,12.10
2019-03-01T05:28:09.820Z,10.43
2019-03-01T05:31:00.212Z,12.67
2019-03-01T05:33:50.546Z,19.03
2019-03-01T05:36:42.025Z,14.10
2019-03-01T05:39:32.310Z,12.07
2019-03-01T05:42:22.716Z,19.57
2019-03-01T05:45:16.650Z,16.70
2019-03-01T05:48:06.675Z,11.43
2019-03-01T05:50:56.907Z,10.13
2019-03-01T05:53:47.106Z,12.77
2019-03-01T05:56:37.349Z,10.70
2019-03-01T05:59:30.650Z,10.33
2019-03-01T06:02:46.572Z,8.57
2019-03-01T06:05:39.368Z,7.63
2019-03-01T06:09:06.144Z,9.53
2019-03-01T06:12:38.012Z,8.77
2019-03-01T06:16:07.545Z,8.87
2019-03-01T06:19:16.928Z,6.73
2019-03-01T06:22:35.846Z,7.70
2019-03-01T06:26:06.794Z,8.97
2019-03-01T06:29:25.052Z,8.33
2019-03-01T06:32:58.584Z,8.15
2019-03-01T06:36:02.083Z,7.87
2019-03-01T06:39:39.373Z,6.97
2019-03-01T06:43:04.060Z,7.65
2019-03-01T06:46:25.696Z,7.25
2019-03-01T06:49:31.655Z,7.28
2019-03-01T06:52:23.035Z,6.85
2019-03-01T06:55:34.928Z,7.65
2019-03-01T06:58:31.908Z,8.18
2019-03-01T07:01:34.769Z,8.35
2019-03-01T07:04:25.707Z,9.40
2019-03-01T07:07:16.786Z,9.15
2019-03-01T07:10:08.565Z,7.97
2019-03-01T07:12:59.573Z,10.25
2019-03-01T07:15:52.866Z,6.80
2019-03-01T07:18:44.034Z,9.18
2019-03-01T07:21:35.545Z,7.53
2019-03-01T07:24:26.634Z,10.03
2019-03-01T07:27:17.593Z,8.40
2019-03-01T07:30:08.661Z,7.40
2019-03-01T07:32:59.213Z,8.20
2019-03-01T07:35:50.916Z,8.25
2019-03-01T07:38:41.639Z,9.03
2019-03-01T07:41:32.405Z,5.97
2019-03-01T07:44:23.237Z,8.75
2019-03-01T07:47:14.146Z,9.48
2019-03-01T07:50:05.636Z,9.45
2019-03-01T07:52:56.341Z,9.50
2019-03-01T07:55:49.822Z,10.53
2019-03-01T07:58:40.855Z,8.95
2019-03-01T08:01:31.741Z,9.30
2019-03-01T08:04:23.774Z,9.43
2019-03-01T08:07:15.089Z,11.73
2019-03-01T08:10:07.978Z,8.23
2019-03-01T08:12:58.765Z,9.98
2019-03-01T08:15:49.847Z,10.53
2019-03-01T08:18:44.119Z,13.22
2019-03-01T08:21:33.475Z,10.58
2019-03-01T08:24:24.424Z,15.55
2019-03-01T08:27:15.339Z,17.37
2019-03-01T08:30:10.270Z,12.18
2019-03-01T08:33:02.626Z,10.68
2019-03-01T08:35:54.124Z,9.50
2019-03-01T08:38:45.150Z,12.85
2019-03-01T08:41:35.742Z,16.40
2019-03-01T08:44:27.463Z,12.10
2019-03-01T08:47:23.471Z,10.67
2019-03-01T08:50:11.544Z,10.53
2019-03-01T08:53:01.706Z,13.13
2019-03-01T08:55:53.138Z,12.17
2019-03-01T08:58:43.494Z,10.03
2019-03-01T09:01:35.149Z,11.70
2019-03-01T09:04:25.524Z,13.47
2019-03-01T09:07:15.906Z,12.70
2019-03-01T09:10:06.604Z,12.77
2019-03-01T09:12:59.740Z,11.47
2019-03-01T09:15:50.462Z,13.97
2019-03-01T09:18:40.950Z,15.23
2019-03-01T09:21:31.327Z,13.20
2019-03-01T09:24:22.261Z,12.33
2019-03-01T09:27:13.172Z,17.10
2019-03-01T09:30:04.205Z,11.50
2019-03-01T09:32:55.213Z,12.80
2019-03-01T09:35:53.660Z,11.50
2019-03-01T09:38:44.594Z,13.35
2019-03-01T09:41:36.598Z,13.38
2019-03-01T09:44:27.462Z,13.90
2019-03-01T09:47:17.862Z,13.27
2019-03-01T09:50:08.900Z,15.40
2019-03-01T09:53:00.059Z,11.87
2019-03-01T09:55:50.318Z,12.30
2019-03-01T09:58:40.862Z,13.50
2019-03-01T10:01:30.933Z,11.93
2019-03-01T10:04:22.436Z,13.23
2019-03-01T10:07:13.044Z,13.57
2019-03-01T10:10:03.578Z,16.23
2019-03-01T10:12:53.834Z,14.90
2019-03-01T10:15:44.211Z,15.20
2019-03-01T10:18:34.333Z,13.30
2019-03-01T10:21:24.774Z,17.40
2019-03-01T10:24:14.924Z,12.13
2019-03-01T10:27:05.192Z,14.73
2019-03-01T10:29:55.475Z,14.43
2019-03-01T10:32:46.406Z,15.97
2019-03-01T10:35:36.854Z,15.30
2019-03-01T10:38:27.436Z,14.53
2019-03-01T10:41:17.672Z,16.17
2019-03-01T10:44:08.007Z,14.87
2019-03-01T10:46:59.537Z,14.70
2019-03-01T10:49:50.043Z,17.90
2019-03-01T10:52:41.778Z,12.37
2019-03-01T10:55:32.527Z,16.77
2019-03-01T10:58:22.881Z,13.80
2019-03-01T11:01:13.275Z,14.70
2019-03-01T11:04:03.642Z,17.33
2019-03-01T11:06:54.308Z,13.23
2019-03-01T11:09:44.488Z,15.10
2019-03-01T11:12:38.071Z,13.83
2019-03-01T11:15:28.086Z,17.40
2019-03-01T11:18:18.812Z,14.50
2019-03-01T11:21:11.748Z,15.70
2019-03-01T11:24:02.287Z,14.83
2019-03-01T11:26:52.756Z,11.87
2019-03-01T11:29:43.223Z,14.63
2019-03-01T11:32:33.254Z,15.90
2019-03-01T11:35:23.558Z,13.73
2019-03-01T11:38:13.898Z,15.30
2019-03-01T11:41:05.079Z,14.37
2019-03-01T11:43:55.556Z,16.47
2019-03-01T11:46:45.944Z,14.80
2019-03-01T11:49:36.473Z,16.60
2019-03-01T11:52:26.790Z,13.70
2019-03-01T11:55:17.636Z,14.57
2019-03-01T11:58:08.151Z,13.43
2019-03-01T12:00:58.629Z,13.67
2019-03-01T12:03:48.761Z,14.13
2019-03-01T12:06:39.489Z,14.87
2019-03-01T12:09:29.687Z,13.93
2019-03-01T12:12:19.917Z,14.17
2019-03-01T12:15:10.542Z,15.97
2019-03-01T12:18:00.714Z,15.33
2019-03-01T12:20:51.732Z,13.97
2019-03-01T12:23:41.848Z,11.47
2019-03-01T12:26:33.420Z,13.73
2019-03-01T12:29:24.937Z,12.77
2019-03-01T12:32:15.797Z,14.73
2019-03-01T12:35:06.750Z,14.63
2019-03-01T12:37:57.247Z,18.37
2019-03-01T12:40:47.722Z,12.70
2019-03-01T12:43:38.657Z,13.50
2019-03-01T12:46:28.884Z,14.13
2019-03-01T12:49:19.186Z,14.70
2019-03-01T12:52:09.172Z,14.27
2019-03-01T12:54:59.617Z,13.93
2019-03-01T12:57:49.946Z,13.30
2019-03-01T13:00:40.467Z,12.40
2019-03-01T13:03:31.638Z,15.87
2019-03-01T13:06:22.256Z,16.30
2019-03-01T13:09:15.850Z,14.03
2019-03-01T13:12:06.221Z,16.43
2019-03-01T13:14:56.657Z,13.40
2019-03-01T13:17:47.190Z,17.30
2019-03-01T13:20:38.150Z,20.23
2019-03-01T13:23:31.105Z,17.97
2019-03-01T13:26:21.681Z,21.53
2019-03-01T13:29:11.915Z,16.53
2019-03-01T13:32:01.924Z,12.53
2019-03-01T13:34:53.324Z,11.87
2019-03-01T13:37:43.643Z,12.60
2019-03-01T13:40:34.224Z,14.03
2019-03-01T13:43:27.417Z,11.07
2019-03-01T13:46:16.190Z,11.03
2019-03-01T13:49:06.573Z,15.17
2019-03-01T13:51:57.045Z,11.67
2019-03-01T13:54:47.254Z,12.87
2019-03-01T13:57:37.465Z,12.43
2019-03-01T14:00:27.736Z,11.20
2019-03-01T14:03:20.816Z,12.57
2019-03-01T14:06:10.345Z,14.70
2019-03-01T14:09:00.689Z,14.77
2019-03-01T14:11:55.742Z,10.47
2019-03-01T14:14:44.374Z,11.53
2019-03-01T14:17:34.700Z,11.13
2019-03-01T14:20:24.873Z,10.93
2019-03-01T14:23:15.150Z,11.77
2019-03-01T14:26:06.688Z,12.63
2019-03-01T14:28:57.097Z,15.23
2019-03-01T14:31:47.624Z,14.67
2019-03-01T14:34:37.842Z,11.27
2019-03-01T14:37:28.666Z,10.90
2019-03-01T14:40:22.214Z,11.77
2019-03-01T14:43:12.310Z,9.80
2019-03-01T14:46:02.621Z,12.40
2019-03-01T14:48:53.410Z,14.57
2019-03-01T14:51:46.549Z,11.77
2019-03-01T14:54:35.632Z,13.20
2019-03-01T14:57:38.761Z,13.07
2019-03-01T15:00:53.596Z,9.30
2019-03-01T15:03:43.563Z,11.70
2019-03-01T15:06:34.128Z,14.47
2019-03-01T15:09:24.392Z,11.13
2019-03-01T15:12:19.667Z,11.43
2019-03-01T15:15:06.938Z,14.53
2019-03-01T15:17:57.904Z,11.20
2019-03-01T15:20:48.443Z,13.03
2019-03-01T15:23:38.908Z,12.57
2019-03-01T15:26:29.310Z,11.33
2019-03-01T15:29:19.886Z,13.37
2019-03-01T15:32:12.437Z,9.30
2019-03-01T15:35:04.039Z,12.20
2019-03-01T15:37:54.577Z,13.47
2019-03-01T15:40:45.183Z,13.40
2019-03-01T15:43:35.526Z,11.80
2019-03-01T15:46:25.940Z,14.10
2019-03-01T15:49:16.314Z,12.80
2019-03-01T15:52:06.445Z,16.33
2019-03-01T15:54:57.591Z,14.60
2019-03-01T15:57:47.730Z,11.03
2019-03-01T16:00:38.022Z,14.00
2019-03-01T16:03:28.165Z,13.47
2019-03-01T16:06:22.253Z,9.73
2019-03-01T16:09:17.625Z,13.43
2019-03-01T16:12:07.688Z,12.43
2019-03-01T16:15:00.572Z,12.70
2019-03-01T16:17:50.485Z,13.17
2019-03-01T16:20:40.870Z,11.07
2019-03-01T16:23:31.155Z,16.57
2019-03-01T16:26:29.658Z,13.33
2019-03-01T16:29:14.569Z,14.37
2019-03-01T16:32:08.149Z,17.10
2019-03-01T16:34:57.338Z,13.93
2019-03-01T16:37:49.452Z,15.50
2019-03-01T16:40:39.923Z,15.53
2019-03-01T16:43:30.196Z,18.27
2019-03-01T16:46:21.513Z,10.70
2019-03-01T16:49:12.012Z,14.67
2019-03-01T16:52:02.423Z,11.67
2019-03-01T16:54:54.763Z,14.53
2019-03-01T16:57:44.881Z,16.23
2019-03-01T17:00:35.263Z,17.87
2019-03-01T17:03:25.598Z,19.40
2019-03-01T17:06:15.942Z,14.73
2019-03-01T17:09:07.809Z,13.20
2019-03-01T17:11:58.300Z,17.30
2019-03-01T17:14:48.675Z,15.73
2019-03-01T17:17:39.539Z,14.93
2019-03-01T17:20:31.264Z,15.70
2019-03-01T17:23:22.170Z,13.80
2019-03-01T17:26:12.614Z,17.67
2019-03-01T17:29:04.104Z,15.77
2019-03-01T17:31:54.812Z,17.43
2019-03-01T17:34:46.005Z,14.33
2019-03-01T17:37:36.407Z,14.60
2019-03-01T17:40:29.388Z,11.93
2019-03-01T17:43:18.275Z,19.87
2019-03-01T17:46:08.735Z,14.20
2019-03-01T17:48:59.081Z,17.23
2019-03-01T17:51:49.308Z,19.20
2019-03-01T17:54:39.608Z,15.70
2019-03-01T17:57:33.120Z,13.33
2019-03-01T18:00:28.186Z,13.10
2019-03-01T18:03:18.600Z,12.67
2019-03-01T18:06:16.816Z,11.77
2019-03-01T18:09:06.610Z,15.43
2019-03-01T18:11:58.040Z,14.90
2019-03-01T18:14:48.309Z,16.57
2019-03-01T18:17:38.433Z,11.80
2019-03-01T18:20:28.743Z,13.93
2019-03-01T18:23:21.903Z,14.23
2019-03-01T18:26:12.075Z,18.17
2019-03-01T18:29:04.429Z,13.90
2019-03-01T18:31:54.756Z,15.03
2019-03-01T18:34:45.077Z,14.30
2019-03-01T18:37:35.635Z,13.03
2019-03-01T18:40:26.111Z,13.60
2019-03-01T18:43:19.660Z,13.97
2019-03-01T18:46:11.256Z,15.00
2019-03-01T18:49:01.707Z,14.33
2019-03-01T18:51:52.020Z,11.57
2019-03-01T18:54:43.043Z,9.47
2019-03-01T18:57:35.410Z,9.93
2019-03-01T19:00:35.835Z,8.17
2019-03-01T19:03:25.316Z,7.70
2019-03-01T19:06:16.240Z,8.47
2019-03-01T19:09:08.675Z,10.03
2019-03-01T19:11:59.031Z,9.23
2019-03-01T19:14:49.214Z,8.13
2019-03-01T19:17:40.730Z,7.83
2019-03-01T19:20:32.062Z,8.67
2019-03-01T19:23:22.101Z,8.27
2019-03-01T19:26:13.115Z,7.17
2019-03-01T19:29:03.698Z,8.20
2019-03-01T19:31:54.001Z,6.47
2019-03-01T19:34:44.538Z,7.23
2019-03-01T19:37:35.218Z,9.23
2019-03-01T19:40:25.360Z,6.43
2019-03-01T19:43:15.786Z,17.07
2019-03-01T19:46:07.259Z,12.33
2019-03-01T19:48:58.664Z,7.20
2019-03-01T19:51:49.161Z,11.27
2019-03-01T19:54:39.712Z,13.63
2019-03-01T19:57:30.107Z,9.43
2019-03-01T20:00:22.013Z,11.90
2019-03-01T20:03:13.071Z,16.10
2019-03-01T20:06:04.542Z,8.90
2019-03-01T20:08:55.368Z,10.97
2019-03-01T20:11:45.479Z,9.13
2019-03-01T20:14:35.771Z,8.00
2019-03-01T20:17:26.103Z,7.83
2019-03-01T20:20:17.769Z,8.70
2019-03-01T20:23:08.035Z,8.47
2019-03-01T20:25:59.372Z,8.17
2019-03-01T20:28:50.464Z,7.60
2019-03-01T20:31:41.737Z,6.97
2019-03-01T20:34:34.868Z,10.97
2019-03-01T20:37:24.759Z,8.97
2019-03-01T20:40:15.801Z,10.00
2019-03-01T20:43:07.018Z,12.40
2019-03-01T20:45:57.378Z,10.07
2019-03-01T20:48:48.781Z,9.43
2019-03-01T20:51:38.821Z,7.23
2019-03-01T20:54:29.256Z,10.10
2019-03-01T20:57:19.360Z,11.23
2019-03-01T21:00:12.010Z,9.13
2019-03-01T21:03:02.128Z,9.23
2019-03-01T21:05:52.721Z,8.00
2019-03-01T21:08:43.030Z,8.83
2019-03-01T21:11:33.471Z,8.47
2019-03-01T21:14:27.000Z,10.23
2019-03-01T21:17:16.740Z,9.77
2019-03-01T21:20:08.381Z,8.17
2019-03-01T21:22:59.088Z,6.30
2019-03-01T21:25:49.548Z,7.37
2019-03-01T21:28:41.721Z,6.70
2019-03-01T21:31:35.147Z,8.47
2019-03-01T21:34:24.158Z,10.13
2019-03-01T21:37:16.586Z,10.40
2019-03-01T21:40:07.304Z,11.73
2019-03-01T21:43:00.009Z,11.23
2019-03-01T21:45:49.222Z,14.60
2019-03-01T21:48:39.464Z,15.37
2019-03-01T21:51:30.561Z,17.07
2019-03-01T21:54:20.664Z,16.60
2019-03-01T21:57:11.008Z,16.57
2019-03-01T22:00:01.145Z,19.10
2019-03-01T22:02:54.321Z,20.97
2019-03-01T22:05:45.388Z,19.53
2019-03-01T22:08:36.142Z,18.47
2019-03-01T22:11:26.472Z,17.17
2019-03-01T22:14:16.872Z,18.00
2019-03-01T22:17:07.292Z,17.57
2019-03-01T22:19:57.855Z,18.90
2019-03-01T22:22:48.182Z,18.83
2019-03-01T22:25:39.094Z,19.10
2019-03-01T22:28:32.649Z,21.63
2019-03-01T22:31:21.111Z,19.80
2019-03-01T22:34:11.439Z,17.20
2019-03-01T22:37:01.838Z,15.70
2019-03-01T22:39:52.338Z,14.90
2019-03-01T22:42:45.828Z,13.33
2019-03-01T22:45:35.229Z,17.10
2019-03-01T22:48:25.843Z,13.53
2019-03-01T22:51:18.013Z,13.43
2019-03-01T22:54:08.525Z,13.03
2019-03-01T22:56:58.880Z,12.80
2019-03-01T22:59:49.350Z,10.63
2019-03-01T23:02:43.507Z,12.50
2019-03-01T23:05:35.508Z,8.90
2019-03-01T23:08:25.651Z,10.90
2019-03-01T23:11:18.211Z,9.00
2019-03-01T23:14:08.340Z,9.97
2019-03-01T23:16:59.112Z,10.10
2019-03-01T23:19:51.609Z,12.30
2019-03-01T23:22:42.786Z,11.03
2019-03-01T23:25:33.604Z,6.50
2019-03-01T23:28:23.892Z,7.73
2019-03-01T23:31:14.289Z,10.67
2019-03-01T23:34:07.049Z,7.70
2019-03-01T23:36:57.039Z,5.50
2019-03-01T23:39:47.432Z,9.10
2019-03-01T23:42:37.845Z,9.23
2019-03-01T23:45:28.302Z,8.50
2019-03-01T23:48:18.585Z,7.13
2019-03-01T23:51:10.557Z,9.60
2019-03-01T23:54:01.023Z,9.10
2019-03-01T23:56:51.674Z,9.10
2019-03-01T23:59:42.174Z,11.23
